Time;durP1;ratioP1;P1;durP2;ratioP2;P2;SDS_P1;SDS_P2;PMS_P1;PMS_P2;Temp;Humidity;BMP_temperature;BMP_pressure;BME280_temperature;BME280_humidity;BME280_pressure;Samples;Min_cycle;Max_cycle;Signal;HPM_P1;HPM_P2
2022/05/03 00:03:28;;;;;;;;;;;8.10;99.90;;;;;;4913703;29;20328;-80
2022/05/03 00:06:16;;;;;;;;;;;8.00;96.90;;;;;;4897874;29;20446;-80
2022/05/03 00:09:00;;;;;;;;;;;7.90;96.70;;;;;;4915939;29;19927;-80
2022/05/03 00:11:47;;;;;;;;;;;7.80;99.90;;;;;;4911930;29;20070;-80
2022/05/03 00:14:43;;;;;;;;;;;7.80;99.90;;;;;;4932402;29;19935;-80
2022/05/03 00:17:38;;;;;;;;;;;7.70;99.90;;;;;;4968682;28;19917;-81
2022/05/03 00:20:26;;;;;;;;;;;7.70;99.90;;;;;;4935834;28;19937;-81
2022/05/03 00:23:07;;;;;;;;;;;7.70;99.90;;;;;;5004268;28;20020;-82
2022/05/03 00:25:47;;;;;;;;;;;7.60;99.90;;;;;;5013072;28;19932;-80
2022/05/03 00:28:26;;;;;;;;;;;7.60;99.90;;;;;;5010616;28;20019;-81
2022/05/03 00:31:01;;;;;;;;;;;7.60;99.90;;;;;;5011795;28;19974;-81
2022/05/03 00:33:45;;;;;;;;;;;7.50;99.90;;;;;;4979276;28;20319;-80
2022/05/03 00:36:36;;;;;;;;;;;7.50;99.90;;;;;;5014836;28;19983;-80
2022/05/03 00:39:18;;;;;;;;;;;7.40;99.90;;;;;;5009446;28;19925;-80
2022/05/03 00:42:11;;;;;;;;;;;7.40;99.90;;;;;;5010267;28;19925;-80
2022/05/03 00:45:00;;;;;;;;;;;7.40;99.90;;;;;;4978916;28;20293;-81
2022/05/03 00:51:19;;;;;;;;;;;7.30;99.90;;;;;;4950993;29;20025;-80
2022/05/03 00:57:31;;;;;;;;;;;7.20;99.90;;;;;;5011492;28;19925;-81
2022/05/03 01:00:25;;;;;;;;;;;7.10;99.90;;;;;;4950973;29;19978;-81
2022/05/03 01:03:22;;;;;;;;;;;7.10;99.90;;;;;;4951305;29;19957;-82
2022/05/03 01:06:13;;;;;;;;;;;7.10;99.90;;;;;;4935608;29;19922;-81
2022/05/03 01:09:32;;;;;;;;;;;7.00;99.90;;;;;;4951411;29;19921;-80
2022/05/03 01:12:29;;;;;;;;;;;7.00;99.90;;;;;;4969357;28;19926;-80
2022/05/03 01:15:44;;;;;;;;;;;6.90;99.90;;;;;;4970090;28;20085;-80
2022/05/03 01:18:35;;;;;;;;;;;6.80;99.90;;;;;;4959849;28;19926;-80
2022/05/03 01:21:41;;;;;;;;;;;6.80;99.90;;;;;;4942152;28;20486;-80
2022/05/03 01:25:19;;;;;;;;;;;6.80;99.90;;;;;;4970376;28;19928;-81
2022/05/03 01:28:53;;;;;;;;;;;6.80;99.90;;;;;;4969790;28;19922;-80
2022/05/03 01:31:41;;;;;;;;;;;6.80;99.90;;;;;;4993349;28;19921;-80
2022/05/03 01:38:37;;;;;;;;;;;6.70;99.90;;;;;;5012267;28;19961;-83
2022/05/03 01:41:28;;;;;;;;;;;6.50;99.90;;;;;;5008364;28;20011;-79
2022/05/03 01:44:31;;;;;;;;;;;6.50;99.90;;;;;;5010947;28;19920;-80
2022/05/03 01:47:23;;;;;;;;;;;6.50;99.90;;;;;;4992463;28;19921;-84
2022/05/03 01:50:20;;;;;;;;;;;6.40;99.90;;;;;;5012323;28;19921;-80
2022/05/03 01:53:08;;;;;;;;;;;6.30;99.90;;;;;;4992673;28;19921;-80
2022/05/03 01:56:04;;;;;;;;;;;6.30;99.90;;;;;;5009956;28;19947;-81
2022/05/03 01:59:11;;;;;;;;;;;6.20;99.90;;;;;;5016797;28;19925;-80
2022/05/03 02:01:54;;;;;;;;;;;6.10;99.90;;;;;;5010584;28;20397;-80
2022/05/03 02:05:16;;;;;;;;;;;6.10;99.90;;;;;;4993293;28;19926;-81
2022/05/03 02:08:10;;;;;;;;;;;6.00;99.90;;;;;;4931746;29;19932;-81
2022/05/03 02:10:42;;;;;;;;;;;6.00;99.90;;;;;;5011225;28;20424;-80
2022/05/03 02:14:43;;;;;;;;;;;5.90;99.90;;;;;;4977241;28;19980;-80
2022/05/03 02:16:58;;;;;;;;;;;5.90;99.90;;;;;;5023548;28;20301;-81
2022/05/03 02:19:44;;;;;;;;;;;5.80;99.90;;;;;;5010349;28;19997;-81
2022/05/03 02:22:30;;;;;;;;;;;5.80;99.90;;;;;;5020281;28;19932;-80
2022/05/03 02:25:37;;;;;;;;;;;5.80;99.90;;;;;;5015095;28;19925;-80
2022/05/03 02:28:40;;;;;;;;;;;5.90;99.90;;;;;;5015413;28;19971;-80
2022/05/03 02:31:14;;;;;;;;;;;5.90;99.90;;;;;;5030455;28;20301;-84
2022/05/03 02:34:02;;;;;;;;;;;5.90;99.90;;;;;;5012309;28;20641;-80
2022/05/03 02:36:49;;;;;;;;;;;5.80;99.90;;;;;;5013331;28;20024;-80
2022/05/03 02:39:21;;;;;;;;;;;5.80;99.90;;;;;;5030724;28;19931;-79
2022/05/03 02:41:51;;;;;;;;;;;6.10;99.90;;;;;;5029108;28;19925;-81
2022/05/03 02:44:26;;;;;;;;;;;5.60;99.90;;;;;;5029715;28;19925;-80
2022/05/03 02:47:13;;;;;;;;;;;5.60;99.90;;;;;;5015391;28;19963;-85
2022/05/03 02:50:05;;;;;;;;;;;5.60;99.90;;;;;;4997756;28;19964;-80
2022/05/03 02:52:58;;;;;;;;;;;5.60;99.90;;;;;;4994830;28;19922;-80
2022/05/03 02:56:16;;;;;;;;;;;5.50;99.90;;;;;;5010243;28;19925;-80
2022/05/03 02:59:19;;;;;;;;;;;5.50;99.90;;;;;;4993561;28;19935;-80
2022/05/03 03:02:34;;;;;;;;;;;5.40;99.90;;;;;;5010344;28;20011;-80
2022/05/03 03:05:25;;;;;;;;;;;5.40;99.90;;;;;;5029743;28;19932;-81
2022/05/03 03:08:13;;;;;;;;;;;5.50;99.90;;;;;;4990649;28;19929;-80
2022/05/03 03:11:00;;;;;;;;;;;5.50;99.90;;;;;;5011655;28;19922;-81
2022/05/03 03:14:26;;;;;;;;;;;5.50;99.90;;;;;;5011894;28;19926;-80
2022/05/03 03:17:31;;;;;;;;;;;5.50;99.90;;;;;;4934258;29;20013;-80
2022/05/03 03:20:45;;;;;;;;;;;6.40;99.90;;;;;;4914736;29;19961;-80
2022/05/03 03:23:21;;;;;;;;;;;5.30;99.90;;;;;;4936405;29;19922;-80
2022/05/03 03:29:14;;;;;;;;;;;5.20;99.90;;;;;;5003395;28;20012;-83
2022/05/03 03:32:12;;;;;;;;;;;4.90;99.90;;;;;;4979655;28;19925;-80
2022/05/03 03:35:07;;;;;;;;;;;5.10;99.90;;;;;;5012606;28;19916;-79
2022/05/03 03:38:01;;;;;;;;;;;5.10;99.90;;;;;;4996967;28;19927;-80
2022/05/03 03:41:13;;;;;;;;;;;5.10;99.90;;;;;;4998775;28;20333;-81
2022/05/03 03:44:39;;;;;;;;;;;5.10;99.90;;;;;;5012070;28;20339;-79
2022/05/03 03:47:25;;;;;;;;;;;5.20;99.90;;;;;;4995992;28;20369;-81
2022/05/03 03:49:59;;;;;;;;;;;5.20;99.90;;;;;;5012305;28;19925;-79
2022/05/03 03:59:30;;;;;;;;;;;5.10;99.90;;;;;;4968680;28;19922;-79
2022/05/03 04:02:33;;;;;;;;;;;5.10;99.90;;;;;;4971954;28;20292;-79
2022/05/03 04:05:24;;;;;;;;;;;5.00;99.90;;;;;;4898482;28;19985;-82
2022/05/03 04:08:09;;;;;;;;;;;5.00;99.90;;;;;;4910575;29;19931;-80
2022/05/03 04:10:53;;;;;;;;;;;5.00;99.90;;;;;;4932243;29;20177;-79
2022/05/03 04:17:46;;;;;;;;;;;5.00;99.90;;;;;;4861404;29;19956;-80
2022/05/03 04:20:55;;;;;;;;;;;5.20;99.90;;;;;;4876603;29;19918;-80
2022/05/03 04:24:05;;;;;;;;;;;5.00;99.90;;;;;;4857674;29;19932;-80
2022/05/03 04:30:46;;;;;;;;;;;4.90;99.90;;;;;;4847924;29;20386;-80
2022/05/03 04:33:56;;;;;;;;;;;4.80;99.90;;;;;;4838036;29;19919;-81
2022/05/03 04:40:42;;;;;;;;;;;4.80;99.90;;;;;;4873241;29;19963;-84
2022/05/03 05:07:39;;;;;;;;;;;5.10;99.90;;;;;;4798164;29;19925;-81
2022/05/03 05:28:49;;;;;;;;;;;5.80;99.90;;;;;;4840680;29;19964;-81
2022/05/03 05:31:34;;;;;;;;;;;5.80;99.90;;;;;;4855260;29;19923;-81
2022/05/03 05:51:29;;;;;;;;;;;6.60;99.90;;;;;;4969910;28;19961;-81
2022/05/03 05:58:13;;;;;;;;;;;7.00;99.90;;;;;;5010682;28;19935;-80
2022/05/03 06:11:45;;;;;;;;;;;7.50;99.90;;;;;;4861703;29;20017;-80
2022/05/03 06:40:37;;;;;;;;;;;9.20;99.90;;;;;;4949575;29;19925;-80
2022/05/03 06:54:05;;;;;;;;;;;10.10;99.90;;;;;;4906426;29;20059;-79
2022/05/03 06:57:13;;;;;;;;;;;10.30;99.90;;;;;;4852656;29;19936;-79
2022/05/03 07:00:25;;;;;;;;;;;10.40;99.90;;;;;;4837266;29;19923;-80
2022/05/03 07:10:23;;;;;;;;;;;10.90;99.90;;;;;;4892846;29;19927;-79
2022/05/03 07:13:08;;;;;;;;;;;11.00;99.90;;;;;;4899575;29;20012;-79
2022/05/03 07:16:08;;;;;;;;;;;11.10;99.90;;;;;;4843257;29;19988;-78
2022/05/03 07:24:49;;;;;;;;;;;11.60;99.90;;;;;;4954390;28;19925;-80
2022/05/03 07:27:20;;;;;;;;;;;11.70;99.90;;;;;;4976097;28;19925;-84
2022/05/03 07:30:19;;;;;;;;;;;11.80;99.90;;;;;;4952200;28;19926;-81
2022/05/03 07:33:14;;;;;;;;;;;11.80;99.90;;;;;;4966291;28;20422;-81
2022/05/03 07:36:05;;;;;;;;;;;11.80;99.90;;;;;;4967435;28;19916;-79
2022/05/03 07:38:52;;;;;;;;;;;11.90;99.90;;;;;;4967204;28;20414;-82
2022/05/03 07:44:43;;;;;;;;;;;12.20;99.90;;;;;;4967990;28;19921;-81
2022/05/03 07:47:11;;;;;;;;;;;12.30;99.90;;;;;;4961509;28;19977;-81
2022/05/03 07:50:26;;;;;;;;;;;12.40;99.90;;;;;;4976822;28;19980;-81
2022/05/03 07:57:14;;;;;;;;;;;12.40;99.90;;;;;;4973611;28;20314;-81
2022/05/03 08:00:06;;;;;;;;;;;12.40;99.90;;;;;;4968410;28;19921;-81
2022/05/03 08:02:56;;;;;;;;;;;12.30;99.90;;;;;;4971182;28;20183;-82
2022/05/03 08:12:26;;;;;;;;;;;12.20;99.90;;;;;;4960174;28;19922;-80
2022/05/03 08:14:53;;;;;;;;;;;12.10;99.90;;;;;;4941044;28;19921;-81
2022/05/03 08:17:36;;;;;;;;;;;12.00;99.90;;;;;;4895247;29;20010;-84
2022/05/03 08:20:07;;;;;;;;;;;12.00;99.90;;;;;;4995940;28;19925;-81
2022/05/03 08:23:16;;;;;;;;;;;11.90;99.90;;;;;;5012309;28;20059;-79
2022/05/03 08:26:15;;;;;;;;;;;11.80;99.90;;;;;;5013378;28;19928;-80
2022/05/03 08:29:31;;;;;;;;;;;11.70;99.90;;;;;;5015363;28;20273;-80
2022/05/03 08:32:29;;;;;;;;;;;11.60;99.90;;;;;;4997187;28;19922;-81
2022/05/03 08:35:02;;;;;;;;;;;11.50;99.90;;;;;;5001333;28;19921;-80
2022/05/03 08:43:14;;;;;;;;;;;11.40;99.90;;;;;;5000411;28;19960;-81
2022/05/03 08:45:55;;;;;;;;;;;11.40;99.90;;;;;;4998313;28;19976;-81
2022/05/03 08:48:36;;;;;;;;;;;11.40;99.90;;;;;;4998180;28;19921;-79
2022/05/03 08:51:37;;;;;;;;;;;11.40;99.90;;;;;;5007832;28;19928;-83
2022/05/03 08:54:44;;;;;;;;;;;11.50;99.90;;;;;;4996855;28;19965;-80
2022/05/03 08:57:19;;;;;;;;;;;11.60;99.90;;;;;;4990512;28;20517;-81
2022/05/03 09:00:09;;;;;;;;;;;11.70;99.90;;;;;;5008546;28;19971;-81
2022/05/03 09:02:47;;;;;;;;;;;11.70;99.90;;;;;;4977642;28;20268;-82
2022/05/03 09:13:57;;;;;;;;;;;11.90;99.90;;;;;;5007841;28;19944;-81
2022/05/03 09:16:50;;;;;;;;;;;12.00;99.90;;;;;;5006060;28;19937;-81
2022/05/03 09:19:28;;;;;;;;;;;12.00;99.90;;;;;;4969297;28;19984;-81
2022/05/03 09:25:38;;;;;;;;;;;12.00;99.90;;;;;;4932127;28;20327;-80
2022/05/03 09:28:17;;;;;;;;;;;11.90;99.90;;;;;;4965861;28;20384;-82
2022/05/03 09:31:08;;;;;;;;;;;11.90;99.90;;;;;;4932540;28;19929;-79
2022/05/03 09:33:36;;;;;;;;;;;11.90;99.90;;;;;;4951836;28;19973;-81
2022/05/03 09:36:28;;;;;;;;;;;11.80;99.90;;;;;;4949892;28;19945;-80
2022/05/03 09:39:37;;;;;;;;;;;11.80;99.90;;;;;;4941833;28;20005;-81
2022/05/03 09:42:16;;;;;;;;;;;11.70;99.90;;;;;;4968097;28;19923;-81
2022/05/03 09:45:12;;;;;;;;;;;11.70;99.90;;;;;;4964406;28;20468;-79
2022/05/03 09:51:18;;;;;;;;;;;11.80;99.90;;;;;;4992129;28;19928;-81
2022/05/03 09:54:28;;;;;;;;;;;11.80;99.90;;;;;;4969978;28;20430;-81
2022/05/03 09:57:01;;;;;;;;;;;11.80;99.90;;;;;;5004561;28;20012;-81
2022/05/03 09:59:32;;;;;;;;;;;11.90;99.90;;;;;;5017071;28;19944;-81
2022/05/03 10:02:32;;;;;;;;;;;11.90;99.90;;;;;;5021278;28;19963;-80
2022/05/03 10:05:26;;;;;;;;;;;12.00;99.90;;;;;;5012905;28;19928;-81
2022/05/03 10:08:17;;;;;;;;;;;12.20;99.90;;;;;;5011876;28;19944;-81
2022/05/03 10:11:05;;;;;;;;;;;12.30;99.90;;;;;;5029491;28;20161;-81
2022/05/03 10:13:54;;;;;;;;;;;12.50;99.90;;;;;;5015290;28;19971;-79
2022/05/03 10:30:41;;;;;;;;;;;12.30;99.90;;;;;;5000701;28;20347;-79
2022/05/03 10:38:21;;;;;;;;;;;12.40;99.90;;;;;;5026381;28;19928;-79
2022/05/03 10:42:22;;;;;;;;;;;12.50;99.90;;;;;;5016457;28;19929;-78
2022/05/03 10:49:11;;;;;;;;;;;12.60;99.90;;;;;;5021938;28;19928;-79
2022/05/03 10:52:20;;;;;;;;;;;12.70;99.90;;;;;;5021174;28;19939;-79
2022/05/03 10:55:58;;;;;;;;;;;12.80;99.90;;;;;;5019422;28;19928;-79
2022/05/03 10:59:00;;;;;;;;;;;12.90;99.90;;;;;;4973537;28;20460;-80
2022/05/03 11:05:50;;;;;;;;;;;13.20;99.90;;;;;;5019570;28;20375;-79
2022/05/03 11:08:55;;;;;;;;;;;13.50;99.90;;;;;;5009451;28;19977;-79
2022/05/03 11:11:58;;;;;;;;;;;13.60;99.90;;;;;;5010434;28;19958;-79
2022/05/03 11:15:22;;;;;;;;;;;13.60;99.90;;;;;;5024947;28;19925;-79
2022/05/03 11:24:50;;;;;;;;;;;13.40;99.90;;;;;;5000075;28;19968;-78
2022/05/03 11:27:43;;;;;;;;;;;13.40;99.90;;;;;;4993196;28;19991;-78
2022/05/03 11:30:30;;;;;;;;;;;13.40;99.90;;;;;;4970052;28;19997;-80
2022/05/03 11:37:23;;;;;;;;;;;13.50;99.90;;;;;;4963122;28;19921;-78
2022/05/03 11:40:47;;;;;;;;;;;13.40;99.90;;;;;;4963625;28;19925;-79
2022/05/03 11:57:13;;;;;;;;;;;13.80;99.90;;;;;;4985775;28;20883;-79
2022/05/03 12:04:08;;;;;;;;;;;13.70;99.90;;;;;;4954661;28;19925;-79
2022/05/03 12:07:30;;;;;;;;;;;13.70;99.90;;;;;;4990106;28;19937;-82
2022/05/03 12:30:43;;;;;;;;;;;14.50;99.90;;;;;;5027102;28;20417;-77
2022/05/03 12:37:51;;;;;;;;;;;14.60;99.90;;;;;;5029211;28;19912;-78
2022/05/03 12:43:30;;;;;;;;;;;14.80;99.90;;;;;;4989664;28;20641;-78
2022/05/03 12:53:39;;;;;;;;;;;15.20;99.90;;;;;;4985644;28;19953;-78
2022/05/03 12:59:21;;;;;;;;;;;15.30;99.90;;;;;;4970064;28;19922;-79
2022/05/03 13:02:01;;;;;;;;;;;15.40;99.90;;;;;;4990832;28;19932;-78
2022/05/03 13:07:50;;;;;;;;;;;15.50;99.90;;;;;;4981503;28;20438;-76
2022/05/03 13:14:35;;;;;;;;;;;15.70;99.90;;;;;;4971642;28;19922;-76
2022/05/03 13:21:18;;;;;;;;;;;15.90;99.90;;;;;;4972744;28;19930;-79
2022/05/03 13:27:23;;;;;;;;;;;16.10;99.90;;;;;;4987108;28;19940;-77
2022/05/03 13:30:22;;;;;;;;;;;16.10;97.60;;;;;;4973581;28;20307;-77
2022/05/03 13:32:56;;;;;;;;;;;16.20;99.40;;;;;;4974297;28;19929;-78
2022/05/03 13:41:46;;;;;;;;;;;16.40;94.10;;;;;;4979518;28;19922;-78
2022/05/03 13:45:00;;;;;;;;;;;16.40;93.60;;;;;;4984689;28;20410;-78
2022/05/03 13:47:45;;;;;;;;;;;16.60;93.10;;;;;;5000932;28;19935;-79
2022/05/03 13:50:19;;;;;;;;;;;16.80;93.80;;;;;;4979925;28;19939;-80
2022/05/03 13:53:07;;;;;;;;;;;17.00;92.60;;;;;;5029798;28;19978;-79
2022/05/03 13:55:58;;;;;;;;;;;17.10;90.90;;;;;;4974024;28;20055;-79
2022/05/03 13:58:31;;;;;;;;;;;17.40;88.00;;;;;;5025435;28;19931;-79
2022/05/03 14:00:57;;;;;;;;;;;17.90;90.80;;;;;;5028845;28;19921;-81
2022/05/03 14:03:41;;;;;;;;;;;18.10;90.50;;;;;;5016142;28;19925;-79
2022/05/03 14:06:17;;;;;;;;;;;17.90;91.40;;;;;;5011172;28;19922;-79
2022/05/03 14:08:45;;;;;;;;;;;17.70;90.40;;;;;;4994365;28;19936;-80
2022/05/03 14:11:21;;;;;;;;;;;17.40;90.00;;;;;;4995734;28;19968;-79
2022/05/03 14:13:57;;;;;;;;;;;17.30;86.00;;;;;;5008805;28;19964;-79
2022/05/03 14:16:47;;;;;;;;;;;17.40;90.40;;;;;;4993881;28;19926;-79
2022/05/03 14:22:34;;;;;;;;;;;17.40;83.80;;;;;;5009724;28;20283;-79
2022/05/03 14:25:09;;;;;;;;;;;17.40;81.80;;;;;;4993737;28;20041;-79
2022/05/03 14:27:36;;;;;;;;;;;18.20;80.80;;;;;;5000557;28;20066;-79
2022/05/03 14:30:11;;;;;;;;;;;19.00;77.20;;;;;;4993218;28;19932;-80
2022/05/03 14:33:02;;;;;;;;;;;19.40;79.60;;;;;;5013214;28;19990;-79
2022/05/03 14:35:29;;;;;;;;;;;19.50;77.00;;;;;;5013704;28;19921;-79
2022/05/03 14:37:58;;;;;;;;;;;19.80;78.10;;;;;;4993147;28;19921;-79
2022/05/03 14:40:26;;;;;;;;;;;19.90;72.40;;;;;;5009437;28;19925;-79
2022/05/03 14:43:09;;;;;;;;;;;19.80;73.70;;;;;;5010674;28;19928;-81
2022/05/03 14:45:39;;;;;;;;;;;19.40;74.80;;;;;;4993564;28;19948;-79
2022/05/03 14:48:06;;;;;;;;;;;19.10;72.80;;;;;;5003829;28;20362;-79
2022/05/03 14:50:33;;;;;;;;;;;18.80;74.90;;;;;;4995317;28;19926;-79
2022/05/03 14:53:07;;;;;;;;;;;18.50;73.30;;;;;;5011708;28;19940;-79
2022/05/03 15:02:51;;;;;;;;;;;18.30;74.90;;;;;;5025575;28;19990;-79
2022/05/03 15:04:39;;;;;;;;;;;17.60;72.60;;;;;;4967545;28;19925;-79
2022/05/03 15:07:26;;;;;;;;;;;17.50;74.10;;;;;;4933213;29;19934;-79
2022/05/03 15:10:12;;;;;;;;;;;17.40;74.10;;;;;;4959087;28;19945;-80
2022/05/03 15:12:42;;;;;;;;;;;17.40;74.20;;;;;;4957499;28;19940;-79
2022/05/03 15:15:26;;;;;;;;;;;17.30;74.20;;;;;;4942371;28;19922;-79
2022/05/03 15:18:02;;;;;;;;;;;17.20;73.50;;;;;;4953751;28;19926;-79
2022/05/03 15:20:28;;;;;;;;;;;17.00;72.90;;;;;;4951960;28;20429;-79
2022/05/03 15:25:44;;;;;;;;;;;16.80;73.30;;;;;;4945470;28;19929;-78
2022/05/03 15:28:30;;;;;;;;;;;16.70;73.20;;;;;;4932588;28;20009;-81
2022/05/03 15:31:10;;;;;;;;;;;16.70;73.50;;;;;;4993290;28;19932;-81
2022/05/03 15:34:10;;;;;;;;;;;16.60;72.40;;;;;;4977537;28;19926;-79
2022/05/03 15:36:48;;;;;;;;;;;16.50;72.60;;;;;;5016851;28;19928;-80
2022/05/03 15:39:14;;;;;;;;;;;16.40;72.50;;;;;;4974070;28;19929;-82
2022/05/03 15:41:39;;;;;;;;;;;16.40;73.00;;;;;;4994850;28;19944;-81
2022/05/03 15:44:06;;;;;;;;;;;16.40;72.70;;;;;;4989139;28;19927;-81
2022/05/03 15:46:32;;;;;;;;;;;16.40;72.50;;;;;;4993768;28;19932;-81
2022/05/03 15:48:58;;;;;;;;;;;16.40;73.00;;;;;;4978551;28;19928;-81
2022/05/03 15:51:24;;;;;;;;;;;16.50;72.40;;;;;;4975588;28;20440;-80
2022/05/03 15:53:51;;;;;;;;;;;16.60;72.00;;;;;;4974721;28;20016;-80
2022/05/03 15:56:18;;;;;;;;;;;16.70;71.90;;;;;;4995202;28;20015;-81
2022/05/03 15:58:43;;;;;;;;;;;16.70;71.40;;;;;;4989934;28;19936;-80
2022/05/03 16:01:09;;;;;;;;;;;16.70;72.40;;;;;;4990402;28;19926;-81
2022/05/03 16:03:35;;;;;;;;;;;16.70;70.20;;;;;;5006933;28;19929;-80
2022/05/03 16:06:00;;;;;;;;;;;16.70;72.30;;;;;;4991373;28;20032;-81
2022/05/03 16:08:26;;;;;;;;;;;16.80;72.30;;;;;;4996511;28;19961;-83
2022/05/03 16:11:02;;;;;;;;;;;16.90;71.50;;;;;;5002215;28;19921;-80
2022/05/03 16:13:36;;;;;;;;;;;17.00;70.80;;;;;;4987251;28;19922;-79
2022/05/03 16:16:02;;;;;;;;;;;17.10;71.20;;;;;;4980365;28;19928;-80
2022/05/03 16:22:11;;;;;;;;;;;17.10;71.30;;;;;;4935485;28;19937;-80
2022/05/03 16:25:01;;;;;;;;;;;16.90;70.60;;;;;;5012709;28;20382;-79
2022/05/03 16:28:35;;;;;;;;;;;16.70;71.00;;;;;;4977114;28;19921;-81
2022/05/03 16:34:51;;;;;;;;;;;16.70;70.80;;;;;;5016045;28;19923;-80
2022/05/03 16:44:55;;;;;;;;;;;18.50;69.80;;;;;;5017217;28;19928;-80
2022/05/03 16:51:22;;;;;;;;;;;20.30;64.20;;;;;;4995734;28;19972;-78
2022/05/03 16:54:30;;;;;;;;;;;20.00;65.10;;;;;;4995639;28;20003;-80
2022/05/03 17:10:36;;;;;;;;;;;17.30;67.00;;;;;;4988876;28;20004;-81
2022/05/03 17:17:24;;;;;;;;;;;17.40;67.60;;;;;;4992831;28;19917;-80
2022/05/03 17:23:53;;;;;;;;;;;17.60;65.70;;;;;;5001604;28;19967;-81
2022/05/03 17:27:14;;;;;;;;;;;17.40;66.20;;;;;;5008179;28;19928;-81
2022/05/03 17:30:24;;;;;;;;;;;17.10;65.70;;;;;;4989827;28;19996;-81
2022/05/03 17:33:14;;;;;;;;;;;16.60;66.30;;;;;;4976240;28;19927;-81
2022/05/03 17:36:32;;;;;;;;;;;16.30;66.60;;;;;;4950620;28;19922;-81
2022/05/03 17:42:43;;;;;;;;;;;15.70;67.10;;;;;;4937151;28;19971;-81
2022/05/03 17:45:31;;;;;;;;;;;15.40;67.70;;;;;;4934132;28;19954;-84
2022/05/03 17:48:12;;;;;;;;;;;15.10;67.80;;;;;;4949614;29;20368;-80
2022/05/03 17:50:53;;;;;;;;;;;14.70;67.90;;;;;;4933937;29;19958;-81
2022/05/03 17:56:27;;;;;;;;;;;14.10;69.20;;;;;;4952023;28;19929;-80
2022/05/03 17:59:03;;;;;;;;;;;13.90;69.60;;;;;;4972839;28;20458;-80
2022/05/03 18:01:32;;;;;;;;;;;13.80;69.70;;;;;;4985987;28;19925;-81
2022/05/03 18:04:10;;;;;;;;;;;13.80;70.50;;;;;;4972865;28;19922;-80
2022/05/03 18:09:30;;;;;;;;;;;13.60;69.60;;;;;;4982392;28;19921;-80
2022/05/03 18:12:00;;;;;;;;;;;13.50;69.80;;;;;;5025334;28;19921;-80
2022/05/03 18:14:33;;;;;;;;;;;13.40;70.50;;;;;;4995206;28;19967;-81
2022/05/03 18:17:06;;;;;;;;;;;13.30;70.50;;;;;;4994223;28;19928;-80
2022/05/03 18:19:45;;;;;;;;;;;13.20;70.70;;;;;;4969751;28;20328;-81
2022/05/03 18:22:18;;;;;;;;;;;13.10;71.00;;;;;;4968383;28;19928;-80
2022/05/03 18:24:45;;;;;;;;;;;13.00;71.40;;;;;;4969509;28;20109;-80
2022/05/03 18:27:11;;;;;;;;;;;12.90;70.80;;;;;;4920582;28;19926;-80
2022/05/03 18:30:21;;;;;;;;;;;12.80;71.90;;;;;;4966445;28;20422;-80
2022/05/03 18:33:17;;;;;;;;;;;12.60;71.70;;;;;;4971899;28;20446;-80
2022/05/03 18:36:05;;;;;;;;;;;12.40;72.50;;;;;;4980420;28;19930;-80
2022/05/03 18:38:34;;;;;;;;;;;12.30;72.90;;;;;;4953315;28;20414;-80
2022/05/03 18:41:06;;;;;;;;;;;12.20;72.80;;;;;;4954035;28;19933;-80
2022/05/03 18:43:32;;;;;;;;;;;12.10;73.60;;;;;;4947375;28;19926;-81
2022/05/03 18:46:18;;;;;;;;;;;12.10;74.20;;;;;;4957581;28;20465;-81
2022/05/03 18:48:44;;;;;;;;;;;11.90;73.80;;;;;;4928184;28;19981;-81
2022/05/03 18:51:30;;;;;;;;;;;11.70;74.40;;;;;;4983741;28;19926;-80
2022/05/03 18:56:59;;;;;;;;;;;11.70;74.40;;;;;;4991800;28;19929;-81
2022/05/03 18:59:33;;;;;;;;;;;11.60;74.90;;;;;;4994752;28;19943;-80
2022/05/03 19:02:17;;;;;;;;;;;11.50;75.30;;;;;;4994400;28;19928;-80
2022/05/03 19:04:57;;;;;;;;;;;11.50;75.70;;;;;;5007712;28;20019;-81
2022/05/03 19:07:33;;;;;;;;;;;11.40;75.30;;;;;;5021870;28;20004;-83
2022/05/03 19:10:14;;;;;;;;;;;11.40;75.60;;;;;;5005323;28;20008;-82
2022/05/03 19:12:49;;;;;;;;;;;11.30;76.00;;;;;;5020757;28;19917;-82
2022/05/03 19:15:27;;;;;;;;;;;11.20;76.70;;;;;;4986447;28;19933;-82
2022/05/03 19:17:56;;;;;;;;;;;11.20;76.80;;;;;;5017627;28;19928;-81
2022/05/03 19:20:30;;;;;;;;;;;11.10;76.80;;;;;;5000042;28;20012;-81
2022/05/03 19:23:21;;;;;;;;;;;11.00;77.10;;;;;;4999780;28;19932;-81
2022/05/03 19:31:29;;;;;;;;;;;10.90;78.20;;;;;;4992294;28;20007;-82
2022/05/03 19:33:55;;;;;;;;;;;11.00;79.00;;;;;;4968397;28;19943;-81
2022/05/03 19:36:20;;;;;;;;;;;11.00;80.00;;;;;;4988348;28;19921;-80
2022/05/03 19:38:52;;;;;;;;;;;11.00;78.70;;;;;;4973405;28;19971;-86
2022/05/03 19:41:26;;;;;;;;;;;11.10;78.60;;;;;;4989767;28;19929;-82
2022/05/03 19:43:53;;;;;;;;;;;11.10;79.70;;;;;;4991281;28;20394;-81
2022/05/03 19:46:26;;;;;;;;;;;11.00;78.70;;;;;;4987658;28;19968;-83
2022/05/03 19:49:00;;;;;;;;;;;11.00;79.10;;;;;;5002085;28;19983;-80
2022/05/03 19:51:52;;;;;;;;;;;11.00;79.50;;;;;;5007904;28;20014;-81
2022/05/03 19:54:36;;;;;;;;;;;11.00;80.00;;;;;;5008016;28;19959;-81
2022/05/03 19:57:20;;;;;;;;;;;11.00;79.70;;;;;;5007639;28;19983;-82
2022/05/03 20:00:06;;;;;;;;;;;11.00;79.70;;;;;;4994118;28;19924;-82
2022/05/03 20:02:41;;;;;;;;;;;11.00;81.00;;;;;;4988293;28;20381;-81
2022/05/03 20:05:24;;;;;;;;;;;11.00;81.00;;;;;;5004284;28;19932;-82
2022/05/03 20:08:02;;;;;;;;;;;11.00;80.20;;;;;;4991195;28;19956;-83
2022/05/03 20:10:28;;;;;;;;;;;10.90;79.30;;;;;;4975015;28;19925;-80
2022/05/03 20:12:54;;;;;;;;;;;10.90;80.20;;;;;;4959051;28;19936;-80
2022/05/03 20:15:26;;;;;;;;;;;10.80;80.80;;;;;;4987217;28;20432;-82
2022/05/03 20:18:11;;;;;;;;;;;10.70;82.00;;;;;;5006055;28;20020;-81
2022/05/03 20:20:39;;;;;;;;;;;10.70;81.60;;;;;;4989093;28;19929;-84
2022/05/03 20:23:21;;;;;;;;;;;10.70;83.10;;;;;;5003104;28;19929;-85
2022/05/03 20:25:54;;;;;;;;;;;10.70;83.10;;;;;;4988447;28;20056;-82
2022/05/03 20:28:22;;;;;;;;;;;10.60;83.50;;;;;;4971123;28;20091;-82
2022/05/03 20:31:04;;;;;;;;;;;10.60;82.90;;;;;;4980974;28;19921;-82
2022/05/03 20:34:00;;;;;;;;;;;10.60;82.70;;;;;;4994950;28;19968;-82
2022/05/03 20:36:28;;;;;;;;;;;10.60;84.30;;;;;;5013179;28;20017;-81
2022/05/03 20:39:12;;;;;;;;;;;10.60;85.10;;;;;;5020227;28;20386;-82
2022/05/03 20:41:56;;;;;;;;;;;10.60;85.80;;;;;;4958990;28;19928;-82
2022/05/03 20:44:32;;;;;;;;;;;10.60;84.80;;;;;;5006380;28;19990;-81
2022/05/03 20:50:07;;;;;;;;;;;10.60;88.20;;;;;;4974000;28;20414;-81
2022/05/03 20:52:35;;;;;;;;;;;10.70;87.70;;;;;;4972585;28;19922;-81
2022/05/03 20:55:16;;;;;;;;;;;10.70;87.30;;;;;;4944974;28;20433;-82
2022/05/03 20:58:21;;;;;;;;;;;10.60;86.60;;;;;;4934705;28;19933;-83
2022/05/03 21:01:33;;;;;;;;;;;10.60;88.00;;;;;;4905703;29;19923;-82
2022/05/03 21:04:07;;;;;;;;;;;10.60;89.70;;;;;;4890800;29;19927;-82
2022/05/03 21:06:41;;;;;;;;;;;10.60;90.80;;;;;;4903360;29;20444;-82
2022/05/03 21:09:13;;;;;;;;;;;10.60;91.60;;;;;;4909841;29;20392;-82
2022/05/03 21:11:39;;;;;;;;;;;10.50;92.20;;;;;;4908267;29;19934;-84
2022/05/03 21:14:05;;;;;;;;;;;10.60;91.90;;;;;;4886112;29;19927;-82
2022/05/03 21:16:38;;;;;;;;;;;10.60;92.60;;;;;;4894131;29;19939;-83
2022/05/03 21:19:28;;;;;;;;;;;10.50;92.10;;;;;;4902585;29;20482;-81
2022/05/03 21:21:58;;;;;;;;;;;10.50;92.30;;;;;;4905094;29;19923;-81
2022/05/03 21:24:30;;;;;;;;;;;10.50;92.50;;;;;;4905208;29;19930;-83
2022/05/03 21:27:04;;;;;;;;;;;10.50;92.10;;;;;;4933574;29;19937;-82
2022/05/03 21:29:45;;;;;;;;;;;10.50;91.60;;;;;;4944505;29;19929;-82
2022/05/03 21:32:35;;;;;;;;;;;10.50;91.80;;;;;;4975604;28;20387;-81
2022/05/03 21:38:09;;;;;;;;;;;10.40;91.70;;;;;;4972591;28;19921;-81
2022/05/03 21:40:45;;;;;;;;;;;10.30;92.30;;;;;;4994121;28;20012;-81
2022/05/03 21:43:27;;;;;;;;;;;10.40;92.90;;;;;;4990398;28;20031;-82
2022/05/03 21:46:04;;;;;;;;;;;10.30;92.70;;;;;;4960605;28;19968;-82
2022/05/03 21:48:45;;;;;;;;;;;10.30;93.00;;;;;;4989910;28;19929;-83
2022/05/03 21:51:32;;;;;;;;;;;10.30;93.70;;;;;;4993030;28;19933;-81
2022/05/03 21:53:59;;;;;;;;;;;10.30;94.40;;;;;;4987443;28;20359;-81
2022/05/03 21:56:53;;;;;;;;;;;10.20;94.80;;;;;;5001215;28;20379;-82
2022/05/03 21:59:30;;;;;;;;;;;10.20;95.00;;;;;;5020466;28;19925;-82
2022/05/03 22:01:57;;;;;;;;;;;10.20;94.60;;;;;;4977824;28;20389;-81
2022/05/03 22:04:25;;;;;;;;;;;10.10;94.10;;;;;;4986676;28;19932;-81
2022/05/03 22:06:52;;;;;;;;;;;10.10;94.40;;;;;;5012870;28;20290;-82
2022/05/03 22:09:19;;;;;;;;;;;10.10;94.50;;;;;;5027995;28;19925;-81
2022/05/03 22:12:11;;;;;;;;;;;10.10;94.40;;;;;;5029734;28;19921;-82
2022/05/03 22:14:52;;;;;;;;;;;10.00;93.50;;;;;;5030322;28;19967;-81
2022/05/03 22:17:37;;;;;;;;;;;10.00;93.40;;;;;;5031363;28;19932;-81
2022/05/03 22:20:16;;;;;;;;;;;10.00;94.10;;;;;;5015203;28;19925;-81
2022/05/03 22:22:42;;;;;;;;;;;10.00;93.60;;;;;;5012464;28;20355;-84
2022/05/03 22:25:26;;;;;;;;;;;9.90;93.00;;;;;;5030240;28;19928;-81
2022/05/03 22:27:56;;;;;;;;;;;9.90;93.20;;;;;;5001298;28;19945;-81
2022/05/03 22:30:24;;;;;;;;;;;9.90;93.60;;;;;;4993618;28;20298;-82